Time;durP1;ratioP1;P1;durP2;ratioP2;P2;SDS_P1;SDS_P2;PMS_P1;PMS_P2;Temp;Humidity;BMP_temperature;BMP_pressure;BME280_temperature;BME280_humidity;BME280_pressure;Samples;Min_cycle;Max_cycle;Signal;HPM_P1;HPM_P2
2022/11/21 00:02:12;;;;;;;1.50;1.40;;;21.10;82.30;;;;;;5001663;28;20462;-76
2022/11/21 00:04:38;;;;;;;1.33;1.23;;;21.10;82.10;;;;;;4995308;28;20475;-74
2022/11/21 00:07:05;;;;;;;2.10;1.53;;;21.10;82.10;;;;;;4997079;28;20467;-74
2022/11/21 00:09:32;;;;;;;1.90;1.50;;;21.10;82.10;;;;;;4990515;28;20970;-74
2022/11/21 00:11:59;;;;;;;1.80;1.70;;;21.10;82.00;;;;;;4994804;28;20483;-73
2022/11/21 00:14:26;;;;;;;2.00;1.75;;;21.10;82.00;;;;;;4994783;28;20494;-74
2022/11/21 00:16:54;;;;;;;1.77;1.67;;;21.10;81.80;;;;;;4991706;28;20220;-75
2022/11/21 00:19:20;;;;;;;2.00;1.90;;;21.10;81.70;;;;;;4996093;28;20960;-74
2022/11/21 00:21:47;;;;;;;2.47;1.53;;;21.10;81.70;;;;;;4992610;28;20640;-74
2022/11/21 00:24:14;;;;;;;1.95;1.80;;;21.20;81.70;;;;;;4993953;28;20843;-74
2022/11/21 00:26:40;;;;;;;1.50;1.10;;;21.20;81.70;;;;;;4989500;28;20201;-75
2022/11/21 00:29:07;;;;;;;1.27;1.17;;;21.20;81.60;;;;;;4991374;28;20943;-76
2022/11/21 00:31:34;;;;;;;1.20;1.10;;;21.20;81.50;;;;;;4996173;28;20480;-75
2022/11/21 00:34:02;;;;;;;1.52;1.38;;;21.20;81.40;;;;;;4997032;28;20460;-75
2022/11/21 00:36:29;;;;;;;1.75;1.58;;;21.20;81.40;;;;;;4994226;28;20201;-75
2022/11/21 00:38:55;;;;;;;1.77;1.67;;;21.20;81.40;;;;;;5001080;28;20782;-75
2022/11/21 00:41:22;;;;;;;1.60;1.50;;;21.20;81.30;;;;;;4998515;28;20455;-76
2022/11/21 00:43:49;;;;;;;1.50;1.40;;;21.20;81.30;;;;;;4993096;28;20463;-75
2022/11/21 00:46:15;;;;;;;1.70;1.60;;;21.20;81.30;;;;;;4997327;28;20451;-75
2022/11/21 00:48:42;;;;;;;1.60;1.40;;;21.20;81.50;;;;;;4994509;28;20468;-75
2022/11/21 00:51:10;;;;;;;2.50;1.43;;;21.20;81.20;;;;;;5006829;28;20459;-75
2022/11/21 00:53:37;;;;;;;1.60;1.50;;;21.20;81.20;;;;;;4998931;28;20462;-75
2022/11/21 00:56:04;;;;;;;1.63;1.53;;;21.20;81.10;;;;;;5002708;28;20455;-75
2022/11/21 00:58:31;;;;;;;1.87;1.57;;;21.30;81.20;;;;;;5001681;28;21400;-75
2022/11/21 01:01:05;;;;;;;1.40;1.30;;;21.20;81.00;;;;;;4997804;28;20833;-75
2022/11/21 01:03:33;;;;;;;1.47;1.37;;;21.30;81.00;;;;;;4999748;28;20451;-74
2022/11/21 01:06:02;;;;;;;1.60;1.50;;;21.30;80.90;;;;;;4994996;28;20494;-75
2022/11/21 01:08:30;;;;;;;1.50;1.27;;;21.30;80.90;;;;;;4994211;28;20952;-75
2022/11/21 01:10:57;;;;;;;1.40;1.30;;;21.30;80.90;;;;;;4998163;28;20953;-74
2022/11/21 01:13:23;;;;;;;2.20;1.73;;;21.30;80.90;;;;;;4993798;28;20480;-75
2022/11/21 01:15:50;;;;;;;1.53;1.40;;;21.30;80.80;;;;;;4987634;28;20229;-73
2022/11/21 01:18:17;;;;;;;1.47;1.37;;;21.30;80.80;;;;;;4992465;28;20471;-73
2022/11/21 01:20:43;;;;;;;2.33;1.50;;;21.30;80.80;;;;;;4986789;28;21053;-73
2022/11/21 01:23:10;;;;;;;1.60;1.50;;;21.30;80.70;;;;;;4993917;28;20459;-76
2022/11/21 01:25:38;;;;;;;1.70;1.60;;;21.30;80.70;;;;;;4989981;28;20469;-73
2022/11/21 01:28:05;;;;;;;1.67;1.57;;;21.30;80.60;;;;;;4997485;28;20470;-74
2022/11/21 01:30:31;;;;;;;1.40;1.23;;;21.30;80.60;;;;;;4985012;28;20471;-74
2022/11/21 01:32:58;;;;;;;2.03;1.30;;;21.30;80.60;;;;;;4994078;28;20487;-74
2022/11/21 01:35:25;;;;;;;1.53;1.43;;;21.30;80.60;;;;;;4991802;28;20989;-73
2022/11/21 01:37:52;;;;;;;1.73;1.63;;;21.30;80.50;;;;;;5007386;28;20499;-74
2022/11/21 01:40:18;;;;;;;1.50;1.30;;;21.40;80.60;;;;;;4996386;28;20460;-75
2022/11/21 01:42:53;;;;;;;1.70;1.60;;;21.40;80.60;;;;;;4988067;28;20460;-74
2022/11/21 01:45:53;;;;;;;1.50;1.27;;;21.40;80.50;;;;;;5000675;28;20583;-75
2022/11/21 01:48:23;;;;;;;1.40;1.30;;;21.40;80.40;;;;;;4994693;28;20927;-73
2022/11/21 01:50:50;;;;;;;1.50;1.40;;;21.40;80.40;;;;;;4999316;28;20455;-74
2022/11/21 01:53:17;;;;;;;1.30;1.20;;;21.40;80.40;;;;;;4984787;28;20480;-73
2022/11/21 01:55:44;;;;;;;1.40;1.27;;;21.40;80.30;;;;;;4993557;28;20985;-73
2022/11/21 01:58:13;;;;;;;1.50;1.10;;;21.40;80.30;;;;;;4997530;28;20954;-74
2022/11/21 02:00:42;;;;;;;1.47;1.37;;;21.40;80.30;;;;;;4992709;28;20467;-74
2022/11/21 02:03:12;;;;;;;1.50;1.37;;;21.40;80.20;;;;;;4993941;28;20459;-74
2022/11/21 02:05:40;;;;;;;1.90;1.30;;;21.40;80.10;;;;;;4997796;28;20780;-74
2022/11/21 02:08:13;;;;;;;2.37;1.60;;;21.40;80.10;;;;;;4998284;28;20455;-74
2022/11/21 02:10:47;;;;;;;1.43;1.33;;;21.40;80.10;;;;;;4988239;28;20963;-74
2022/11/21 02:13:16;;;;;;;1.50;1.40;;;21.40;80.00;;;;;;4987777;28;20483;-74
2022/11/21 02:15:43;;;;;;;2.30;1.50;;;21.40;80.00;;;;;;4988083;28;20491;-74
2022/11/21 02:18:10;;;;;;;1.43;1.20;;;21.40;80.00;;;;;;4987631;28;20467;-73
2022/11/21 02:20:37;;;;;;;1.97;1.37;;;21.40;80.00;;;;;;4988549;28;20472;-74
2022/11/21 02:23:12;;;;;;;1.30;1.20;;;21.40;79.90;;;;;;4997420;28;20452;-73
2022/11/21 02:25:42;;;;;;;2.60;1.63;;;21.40;79.80;;;;;;4997934;28;20470;-75
2022/11/21 02:28:13;;;;;;;1.23;1.13;;;21.40;79.70;;;;;;4993154;28;20455;-74
2022/11/21 02:30:42;;;;;;;1.57;1.40;;;21.40;79.80;;;;;;4995571;28;20479;-74
2022/11/21 02:33:08;;;;;;;1.50;1.40;;;21.40;79.70;;;;;;4995012;28;20479;-74
2022/11/21 02:35:35;;;;;;;1.33;1.20;;;21.40;79.70;;;;;;4987252;28;20471;-74
2022/11/21 02:38:06;;;;;;;1.47;1.37;;;21.40;79.60;;;;;;4996238;28;20951;-74
2022/11/21 02:40:36;;;;;;;1.30;1.20;;;21.40;79.60;;;;;;4991533;28;20482;-74
2022/11/21 02:43:10;;;;;;;1.40;1.30;;;21.40;79.60;;;;;;4987878;28;20456;-74
2022/11/21 02:45:39;;;;;;;1.40;1.30;;;21.40;79.60;;;;;;4989620;28;20843;-74
2022/11/21 02:48:06;;;;;;;1.37;1.27;;;21.40;79.50;;;;;;4993238;28;20976;-72
2022/11/21 02:50:34;;;;;;;1.40;1.30;;;21.50;79.60;;;;;;4985878;28;20468;-75
2022/11/21 02:53:01;;;;;;;1.23;1.13;;;21.40;79.40;;;;;;4989193;28;20475;-74
2022/11/21 02:55:28;;;;;;;1.50;1.40;;;21.50;79.50;;;;;;4996353;28;20456;-74
2022/11/21 02:57:55;;;;;;;1.40;1.03;;;21.50;79.40;;;;;;4993302;28;20456;-75
2022/11/21 03:00:23;;;;;;;1.50;1.40;;;21.50;79.40;;;;;;4990224;28;20463;-74
2022/11/21 03:02:52;;;;;;;1.30;1.17;;;21.40;79.30;;;;;;5006221;28;20460;-75
2022/11/21 03:05:20;;;;;;;1.57;1.47;;;21.50;79.40;;;;;;4997031;28;20464;-75
2022/11/21 03:07:47;;;;;;;2.40;1.53;;;21.50;79.30;;;;;;4999630;28;20463;-75
2022/11/21 03:10:14;;;;;;;1.40;1.20;;;21.50;79.30;;;;;;4990250;28;20483;-75
2022/11/21 03:12:42;;;;;;;1.30;1.20;;;21.50;79.20;;;;;;4989722;28;20835;-74
2022/11/21 03:15:11;;;;;;;1.40;1.30;;;21.50;80.00;;;;;;4995648;28;20494;-74
2022/11/21 03:17:40;;;;;;;1.30;1.20;;;21.50;79.20;;;;;;4995601;28;20976;-74
2022/11/21 03:20:08;;;;;;;1.37;1.27;;;21.50;79.20;;;;;;4995548;28;20970;-74
2022/11/21 03:22:35;;;;;;;1.27;1.10;;;21.50;79.10;;;;;;4996080;28;20820;-75
2022/11/21 03:25:02;;;;;;;1.20;1.10;;;21.50;79.10;;;;;;4992522;28;20621;-74
2022/11/21 03:27:28;;;;;;;1.30;1.20;;;21.50;79.00;;;;;;4994854;28;20469;-74
2022/11/21 03:29:55;;;;;;;1.27;1.13;;;21.50;79.00;;;;;;4992704;28;20455;-74
2022/11/21 03:32:22;;;;;;;1.20;1.03;;;21.50;79.00;;;;;;4993931;28;21009;-75
2022/11/21 03:34:50;;;;;;;1.60;1.50;;;21.50;78.90;;;;;;4993974;28;20460;-75
2022/11/21 03:37:17;;;;;;;1.53;1.43;;;21.50;78.90;;;;;;4986121;28;20951;-75
2022/11/21 03:39:43;;;;;;;1.27;1.13;;;21.50;78.80;;;;;;4997785;28;20471;-74
2022/11/21 03:42:10;;;;;;;1.42;1.30;;;21.50;78.90;;;;;;4997595;28;20466;-75
2022/11/21 03:44:37;;;;;;;2.07;1.40;;;21.50;78.80;;;;;;4997125;28;20521;-75
2022/11/21 03:53:49;;;;;;;1.40;1.27;;;21.50;78.80;;;;;;4987214;28;20494;-74
2022/11/21 03:56:16;;;;;;;1.73;1.20;;;21.50;78.70;;;;;;4991418;28;20468;-74
2022/11/21 03:58:44;;;;;;;1.20;1.10;;;21.50;78.70;;;;;;4993561;28;20487;-75
2022/11/21 04:01:11;;;;;;;1.10;1.00;;;21.50;78.60;;;;;;4989689;28;20809;-74
2022/11/21 04:03:39;;;;;;;1.40;1.30;;;21.50;78.60;;;;;;4993125;28;20464;-75
2022/11/21 04:06:05;;;;;;;1.50;1.30;;;21.50;78.50;;;;;;5003139;28;20996;-74
2022/11/21 04:08:32;;;;;;;1.20;1.10;;;21.50;78.50;;;;;;5003176;28;20467;-75
2022/11/21 04:11:00;;;;;;;1.50;1.40;;;21.50;78.50;;;;;;4988663;28;20972;-75
2022/11/21 04:13:27;;;;;;;1.57;1.47;;;21.50;78.50;;;;;;5002661;28;20480;-75
2022/11/21 04:15:54;;;;;;;1.40;1.30;;;21.50;78.50;;;;;;4993851;28;20487;-74
2022/11/21 04:18:20;;;;;;;1.27;1.17;;;21.50;78.40;;;;;;4997931;28;20459;-75
2022/11/21 04:20:47;;;;;;;1.30;1.10;;;21.50;78.40;;;;;;4992247;28;20467;-74
2022/11/21 04:23:14;;;;;;;1.60;1.30;;;21.50;78.40;;;;;;4995042;28;20474;-75
2022/11/21 04:25:43;;;;;;;1.20;1.10;;;21.50;78.40;;;;;;5000990;28;20514;-74
2022/11/21 04:28:13;;;;;;;1.20;1.10;;;21.50;78.40;;;;;;4997097;28;20447;-75
2022/11/21 04:30:40;;;;;;;1.20;1.07;;;21.50;78.30;;;;;;4994575;28;20465;-74
2022/11/21 04:33:07;;;;;;;1.30;1.20;;;21.50;78.30;;;;;;4988490;28;20487;-75
2022/11/21 04:35:34;;;;;;;1.20;1.10;;;21.60;78.30;;;;;;4988719;28;20468;-74
2022/11/21 04:38:01;;;;;;;1.50;1.30;;;21.50;78.20;;;;;;4988420;28;22961;-74
2022/11/21 04:40:27;;;;;;;1.13;1.03;;;21.60;78.30;;;;;;4992709;28;20463;-74
2022/11/21 04:42:54;;;;;;;1.40;1.10;;;21.60;78.30;;;;;;4991499;28;20460;-74
2022/11/21 04:45:22;;;;;;;1.50;1.40;;;21.60;78.20;;;;;;4988093;28;20470;-74
2022/11/21 04:47:49;;;;;;;1.20;1.10;;;21.60;78.20;;;;;;4989113;28;20978;-74
2022/11/21 04:50:17;;;;;;;1.30;1.20;;;21.60;78.20;;;;;;4996262;28;20491;-74
2022/11/21 04:52:49;;;;;;;1.27;1.17;;;21.60;78.20;;;;;;5011777;28;20475;-75
2022/11/21 04:55:16;;;;;;;1.40;1.10;;;21.50;78.10;;;;;;4995429;28;20595;-75
2022/11/21 04:57:43;;;;;;;1.50;1.40;;;21.50;78.10;;;;;;5011772;28;20446;-75
2022/11/21 05:00:11;;;;;;;1.63;1.43;;;21.40;78.20;;;;;;4997199;28;20971;-74
2022/11/21 05:02:39;;;;;;;1.40;1.17;;;21.30;78.40;;;;;;5003602;28;20459;-75
2022/11/21 05:05:06;;;;;;;2.95;0.90;;;21.30;78.60;;;;;;4990998;28;20197;-74
2022/11/21 05:07:33;;;;;;;1.33;1.23;;;21.20;78.70;;;;;;5005454;28;20204;-74
2022/11/21 05:09:59;;;;;;;1.27;1.10;;;21.20;78.90;;;;;;4984854;28;20467;-75
2022/11/21 05:15:10;;;;;;;1.30;1.20;;;21.30;79.10;;;;;;4993759;28;20310;-74
2022/11/21 05:17:38;;;;;;;1.50;1.30;;;21.40;79.60;;;;;;4990983;28;20460;-75
2022/11/21 05:20:06;;;;;;;1.13;1.00;;;21.40;78.50;;;;;;4987271;28;20460;-74
2022/11/21 05:22:36;;;;;;;1.40;1.30;;;21.50;78.40;;;;;;4999037;28;20474;-74
2022/11/21 05:25:03;;;;;;;1.50;1.40;;;21.50;78.30;;;;;;4990743;28;20464;-75
2022/11/21 05:27:30;;;;;;;1.27;1.17;;;21.60;78.20;;;;;;5002257;28;20464;-75
2022/11/21 05:29:56;;;;;;;1.43;1.33;;;21.60;78.10;;;;;;4993951;28;20446;-75
2022/11/21 05:32:24;;;;;;;1.10;0.90;;;21.70;78.00;;;;;;4992087;28;20847;-75
2022/11/21 05:34:52;;;;;;;1.50;1.27;;;21.70;77.80;;;;;;4990395;28;20462;-73
2022/11/21 05:37:20;;;;;;;1.30;1.20;;;21.70;77.70;;;;;;5000572;28;20462;-73
2022/11/21 05:39:47;;;;;;;1.33;1.20;;;21.70;77.70;;;;;;4990140;28;20979;-73
2022/11/21 05:42:14;;;;;;;1.33;1.23;;;21.70;77.70;;;;;;5005401;28;20465;-73
2022/11/21 05:44:39;;;;;;;1.37;1.27;;;21.70;77.60;;;;;;4993833;28;20959;-73
2022/11/21 05:47:06;;;;;;;1.13;1.03;;;21.70;77.60;;;;;;4992735;28;20467;-73
2022/11/21 05:49:32;;;;;;;1.40;1.10;;;21.70;77.50;;;;;;4989593;28;20204;-73
2022/11/21 05:52:00;;;;;;;1.53;1.43;;;21.70;77.50;;;;;;4998794;28;20460;-74
2022/11/21 05:54:27;;;;;;;1.53;1.30;;;21.70;77.30;;;;;;4998712;28;20491;-74
2022/11/21 05:56:54;;;;;;;1.50;1.10;;;21.70;77.30;;;;;;4994605;28;20500;-73
2022/11/21 05:59:20;;;;;;;1.50;1.40;;;21.70;77.40;;;;;;4992269;28;20468;-74
2022/11/21 06:04:31;;;;;;;1.10;1.00;;;21.70;77.40;;;;;;4989528;28;20972;-73
2022/11/21 06:06:58;;;;;;;1.40;1.30;;;21.60;77.30;;;;;;4991556;28;20456;-73
2022/11/21 06:09:26;;;;;;;1.10;1.00;;;21.60;77.30;;;;;;4990454;28;20458;-74
2022/11/21 06:11:53;;;;;;;2.17;1.23;;;21.60;77.30;;;;;;4994057;28;20455;-73
2022/11/21 06:14:19;;;;;;;1.53;1.43;;;21.60;77.30;;;;;;4996196;28;20503;-73
2022/11/21 06:16:46;;;;;;;1.30;1.20;;;21.60;77.30;;;;;;4987988;28;20836;-74
2022/11/21 06:19:13;;;;;;;1.10;1.00;;;21.60;77.30;;;;;;4985730;28;20464;-74
2022/11/21 06:21:39;;;;;;;1.20;1.07;;;21.60;77.50;;;;;;4989803;28;20534;-74
2022/11/21 06:24:07;;;;;;;1.07;0.97;;;21.60;77.40;;;;;;4985383;28;20823;-73
2022/11/21 06:26:35;;;;;;;1.37;1.27;;;21.60;77.40;;;;;;4989295;28;20468;-74
2022/11/21 06:29:02;;;;;;;1.30;1.10;;;21.60;77.40;;;;;;4994603;28;20534;-74
2022/11/21 06:31:29;;;;;;;1.10;1.00;;;21.60;77.30;;;;;;4986272;28;20473;-73
2022/11/21 06:33:58;;;;;;;1.20;1.00;;;21.60;77.30;;;;;;4990249;28;20925;-74
2022/11/21 06:36:25;;;;;;;1.40;1.20;;;21.60;77.40;;;;;;4991383;28;20460;-74
2022/11/21 06:38:54;;;;;;;1.20;1.10;;;21.60;77.30;;;;;;4990726;28;20963;-74
2022/11/21 06:41:24;;;;;;;1.10;1.00;;;21.60;77.40;;;;;;4996744;28;20459;-74
2022/11/21 06:43:52;;;;;;;1.30;1.10;;;21.60;77.30;;;;;;4995114;28;20440;-74
2022/11/21 06:46:20;;;;;;;1.30;1.20;;;21.60;77.30;;;;;;4995301;28;20459;-74
2022/11/21 06:48:47;;;;;;;1.30;1.13;;;21.60;77.30;;;;;;4993497;28;20468;-74
2022/11/21 06:51:18;;;;;;;1.30;1.20;;;21.60;77.30;;;;;;4996395;28;20459;-74
2022/11/21 06:53:46;;;;;;;1.10;0.90;;;21.60;77.20;;;;;;4993568;28;20484;-73
2022/11/21 06:56:15;;;;;;;1.23;1.13;;;21.60;77.10;;;;;;4991539;28;20466;-74
2022/11/21 06:58:42;;;;;;;1.53;1.07;;;21.60;77.10;;;;;;5000002;28;20467;-72
2022/11/21 07:01:10;;;;;;;1.23;1.13;;;21.60;77.20;;;;;;4990404;28;20465;-74
2022/11/21 07:03:37;;;;;;;1.40;1.17;;;21.60;77.10;;;;;;4989136;28;20514;-72
2022/11/21 07:06:05;;;;;;;1.20;1.10;;;21.70;77.10;;;;;;5001744;28;20462;-74
2022/11/21 07:08:34;;;;;;;1.80;1.50;;;21.70;77.10;;;;;;4993653;28;20473;-73
2022/11/21 07:11:01;;;;;;;1.10;1.00;;;21.60;77.00;;;;;;4991500;28;20555;-74
2022/11/21 07:13:27;;;;;;;1.40;1.20;;;21.60;77.00;;;;;;4992217;28;20496;-74
2022/11/21 07:15:55;;;;;;;1.30;0.87;;;21.70;77.10;;;;;;4989825;28;20490;-74
2022/11/21 07:18:23;;;;;;;1.30;1.20;;;21.70;77.10;;;;;;4985988;28;20593;-74
2022/11/21 07:20:50;;;;;;;1.47;1.30;;;21.70;77.00;;;;;;4987135;28;20464;-74
2022/11/21 07:23:17;;;;;;;1.50;1.10;;;21.70;77.00;;;;;;4989706;28;20464;-74
2022/11/21 07:25:44;;;;;;;1.30;1.10;;;21.70;77.00;;;;;;4994890;28;20460;-73
2022/11/21 07:28:10;;;;;;;1.50;1.40;;;21.70;77.00;;;;;;4992771;28;20468;-74
2022/11/21 07:30:37;;;;;;;1.60;1.50;;;21.70;77.00;;;;;;4988667;28;20534;-74
2022/11/21 07:33:06;;;;;;;1.27;1.10;;;21.70;76.80;;;;;;4989509;28;20471;-74
2022/11/21 07:35:35;;;;;;;1.30;1.20;;;21.70;77.00;;;;;;5000772;28;20833;-73
2022/11/21 07:38:02;;;;;;;1.30;1.20;;;21.70;77.00;;;;;;5008679;28;20808;-74
2022/11/21 07:40:32;;;;;;;1.50;1.40;;;21.70;77.00;;;;;;4986965;28;20467;-74
2022/11/21 07:43:01;;;;;;;1.20;1.10;;;21.70;77.00;;;;;;4997757;28;20442;-75
2022/11/21 07:45:27;;;;;;;1.50;1.10;;;21.70;77.00;;;;;;4993093;28;21077;-73
2022/11/21 07:47:58;;;;;;;1.20;1.10;;;21.70;77.10;;;;;;4999151;28;20471;-74
2022/11/21 07:50:24;;;;;;;1.40;1.30;;;21.60;77.00;;;;;;4990873;28;20551;-74
2022/11/21 07:52:57;;;;;;;1.40;1.30;;;21.60;77.10;;;;;;5000821;28;20464;-74
2022/11/21 07:55:23;;;;;;;1.10;1.00;;;21.60;77.20;;;;;;4990022;28;20915;-74
2022/11/21 07:57:58;;;;;;;1.53;1.43;;;21.60;77.30;;;;;;4995841;28;20456;-74
2022/11/21 08:00:25;;;;;;;2.17;1.30;;;21.60;77.30;;;;;;4992446;28;20954;-74
2022/11/21 08:02:51;;;;;;;1.33;1.23;;;21.50;77.50;;;;;;4996656;28;20827;-73
2022/11/21 08:05:18;;;;;;;1.30;1.20;;;21.50;77.50;;;;;;4995508;28;20466;-73
2022/11/21 08:07:45;;;;;;;1.30;1.13;;;21.50;77.60;;;;;;5002403;28;20463;-72
2022/11/21 08:10:13;;;;;;;1.40;1.30;;;21.50;77.70;;;;;;4991355;28;20456;-74
2022/11/21 08:12:40;;;;;;;1.60;0.97;;;21.50;77.50;;;;;;5002581;28;20477;-74
2022/11/21 08:15:07;;;;;;;1.50;1.20;;;21.50;77.50;;;;;;4991965;28;20479;-72
2022/11/21 08:17:34;;;;;;;1.20;1.10;;;21.50;77.40;;;;;;4996213;28;20452;-73
2022/11/21 08:20:03;;;;;;;1.23;1.10;;;21.50;77.30;;;;;;4995320;28;20463;-74
2022/11/21 08:22:29;;;;;;;1.40;1.10;;;21.50;77.50;;;;;;5004770;28;20820;-74
2022/11/21 08:24:56;;;;;;;1.30;1.20;;;21.50;77.60;;;;;;4991383;28;20971;-73
2022/11/21 08:27:24;;;;;;;1.30;1.20;;;21.50;77.50;;;;;;4993758;28;20452;-73
2022/11/21 08:29:51;;;;;;;2.80;1.27;;;21.40;77.50;;;;;;4999429;28;20456;-72
2022/11/21 08:32:17;;;;;;;5.30;1.80;;;21.40;78.20;;;;;;4987212;28;20961;-73
2022/11/21 08:34:44;;;;;;;1.40;1.30;;;21.40;78.30;;;;;;4987762;28;20487;-74
2022/11/21 08:37:10;;;;;;;3.10;1.20;;;21.30;78.40;;;;;;4995672;28;20459;-73
2022/11/21 08:39:37;;;;;;;3.75;1.60;;;21.20;78.60;;;;;;4987946;28;20484;-74
2022/11/21 08:42:04;;;;;;;2.95;1.35;;;21.10;78.60;;;;;;4996938;28;20197;-74
2022/11/21 08:44:33;;;;;;;7.60;1.50;;;21.10;78.50;;;;;;4988778;28;20328;-74
2022/11/21 08:47:01;;;;;;;1.70;1.55;;;21.10;78.70;;;;;;4990564;28;20208;-74
2022/11/21 08:49:28;;;;;;;3.60;1.35;;;21.10;78.60;;;;;;4986875;28;20208;-74
2022/11/21 08:51:55;;;;;;;2.50;1.15;;;21.10;78.60;;;;;;4988422;28;20193;-73
2022/11/21 08:54:23;;;;;;;1.50;1.15;;;21.00;78.40;;;;;;4991116;28;20679;-74
2022/11/21 08:56:51;;;;;;;2.65;1.63;;;21.10;79.00;;;;;;4997826;28;20205;-74
2022/11/21 08:59:18;;;;;;;1.60;1.23;;;21.20;79.80;;;;;;4982194;28;20568;-73
2022/11/21 09:01:46;;;;;;;4.05;1.65;;;21.40;78.60;;;;;;4990079;28;20471;-74
2022/11/21 09:04:12;;;;;;;2.53;1.23;;;21.40;78.30;;;;;;4994775;28;20204;-74
2022/11/21 09:06:39;;;;;;;1.33;1.20;;;21.50;78.30;;;;;;5003150;28;20934;-75
2022/11/21 09:09:07;;;;;;;1.80;1.47;;;21.60;78.10;;;;;;4994094;28;20460;-74
2022/11/21 09:11:35;;;;;;;4.03;1.50;;;21.60;78.10;;;;;;4995164;28;20516;-74
2022/11/21 09:19:31;;;;;;;1.60;1.17;;;21.60;77.80;;;;;;4987538;28;20471;-74
2022/11/21 09:21:58;;;;;;;3.70;1.40;;;21.60;77.60;;;;;;4989130;28;20807;-72
2022/11/21 09:24:25;;;;;;;1.90;1.80;;;21.60;77.70;;;;;;5000255;28;20972;-74
2022/11/21 09:26:51;;;;;;;1.37;1.27;;;21.60;77.70;;;;;;4999763;28;20959;-75
2022/11/21 09:29:18;;;;;;;1.57;1.33;;;21.60;77.80;;;;;;4989271;28;20964;-77
2022/11/21 09:31:46;;;;;;;1.83;1.73;;;21.60;78.80;;;;;;4986594;28;20872;-75
2022/11/21 09:34:13;;;;;;;2.10;1.50;;;21.60;78.90;;;;;;4983987;28;20879;-74
2022/11/21 09:36:39;;;;;;;1.83;1.63;;;21.60;79.20;;;;;;4987485;28;20959;-75
2022/11/21 09:39:06;;;;;;;1.83;1.50;;;21.50;80.00;;;;;;4985111;28;20975;-74
2022/11/21 09:41:52;;;;;;;5.63;1.80;;;21.50;79.40;;;;;;4990994;28;20487;-74
2022/11/21 09:44:40;;;;;;;2.20;1.70;;;21.40;79.40;;;;;;4987187;28;20543;-74
2022/11/21 09:47:19;;;;;;;1.50;1.40;;;21.40;79.80;;;;;;4985976;28;21046;-75
2022/11/21 09:49:52;;;;;;;5.20;1.53;;;21.30;79.80;;;;;;4997812;28;20467;-74
2022/11/21 09:52:22;;;;;;;2.40;1.10;;;21.30;80.00;;;;;;4992586;28;20447;-74
2022/11/21 09:54:52;;;;;;;1.50;1.20;;;21.30;79.90;;;;;;4987766;28;20893;-74
2022/11/21 09:57:23;;;;;;;2.00;1.50;;;21.20;79.70;;;;;;4995821;28;20475;-74
2022/11/21 09:59:51;;;;;;;1.50;1.40;;;21.20;79.70;;;;;;4986471;28;20669;-74
2022/11/21 10:02:22;;;;;;;1.98;1.60;;;21.20;80.00;;;;;;4991020;28;20498;-75
2022/11/21 10:04:50;;;;;;;1.77;1.38;;;21.20;80.10;;;;;;4995520;28;20184;-75
2022/11/21 10:07:21;;;;;;;1.50;1.30;;;21.10;80.00;;;;;;5004370;28;20213;-74
2022/11/21 10:10:03;;;;;;;1.45;1.35;;;21.10;80.10;;;;;;4990297;28;20239;-74
2022/11/21 10:12:36;;;;;;;1.80;1.43;;;21.10;80.20;;;;;;4985092;28;20397;-74
2022/11/21 10:15:13;;;;;;;2.10;1.65;;;21.10;80.30;;;;;;4986006;28;20998;-74
2022/11/21 10:17:52;;;;;;;1.30;1.15;;;21.00;80.30;;;;;;4993882;28;20259;-73
2022/11/21 10:20:33;;;;;;;1.30;1.20;;;21.10;80.40;;;;;;4994272;28;20220;-74
2022/11/21 10:23:16;;;;;;;2.05;1.52;;;21.10;80.40;;;;;;4981396;28;20456;-73
2022/11/21 10:25:49;;;;;;;1.40;1.30;;;21.10;80.40;;;;;;4992910;28;20210;-74
2022/11/21 10:28:21;;;;;;;1.38;1.27;;;21.10;80.20;;;;;;4986334;28;20572;-77
2022/11/21 10:30:51;;;;;;;8.37;2.10;;;21.20;80.20;;;;;;4991743;28;20201;-77
2022/11/21 10:33:26;;;;;;;18.10;15.93;;;21.30;80.60;;;;;;4991174;28;20970;-79
2022/11/21 10:35:57;;;;;;;17.52;14.93;;;19.00;59.30;;;;;;4987279;28;20482;-78
2022/11/21 10:38:25;;;;;;;18.80;15.57;;;14.10;69.40;;;;;;4991091;28;20213;-78
2022/11/21 10:41:00;;;;;;;12.45;10.32;;;11.80;76.20;;;;;;4981307;28;20201;-77
2022/11/21 10:46:20;;;;;;;8.15;6.50;;;16.50;90.40;;;;;;5007831;28;20208;-79
2022/11/21 10:48:55;;;;;;;6.25;4.80;;;18.50;84.30;;;;;;5017607;28;20714;-79
2022/11/21 10:51:35;;;;;;;8.88;4.80;;;19.20;81.80;;;;;;4995992;28;20223;-79
2022/11/21 10:56:53;;;;;;;4.82;4.30;;;19.80;80.20;;;;;;5000188;28;20208;-79
2022/11/21 10:59:24;;;;;;;6.60;4.22;;;20.00;80.40;;;;;;4984735;28;20216;-77
2022/11/21 11:01:59;;;;;;;7.43;3.78;;;20.10;80.60;;;;;;4994064;28;20205;-78
2022/11/21 11:04:28;;;;;;;4.85;3.47;;;20.20;80.70;;;;;;4988927;28;20200;-79
2022/11/21 11:06:55;;;;;;;3.95;2.88;;;20.40;80.80;;;;;;4993076;28;20212;-80
2022/11/21 11:09:24;;;;;;;5.10;3.40;;;20.40;80.50;;;;;;4991165;28;20203;-80
2022/11/21 11:11:51;;;;;;;5.43;4.43;;;20.50;80.60;;;;;;5001108;28;20732;-80
2022/11/21 11:14:30;;;;;;;3.30;2.53;;;20.60;80.80;;;;;;4996232;28;20216;-78
2022/11/21 11:16:56;;;;;;;5.45;3.00;;;20.60;80.70;;;;;;4985532;28;20239;-78
2022/11/21 11:19:28;;;;;;;2.65;2.05;;;20.70;80.90;;;;;;4993903;28;20675;-78
2022/11/21 11:21:56;;;;;;;3.13;2.50;;;20.70;80.90;;;;;;5002416;28;20215;-80
2022/11/21 11:24:26;;;;;;;3.10;2.70;;;20.70;81.00;;;;;;5000766;28;20201;-78
2022/11/21 11:26:58;;;;;;;2.65;1.98;;;20.70;81.00;;;;;;4998574;28;20252;-77
2022/11/21 11:29:26;;;;;;;4.03;2.67;;;20.80;81.20;;;;;;4990592;28;20205;-79
2022/11/21 11:31:57;;;;;;;4.07;2.40;;;20.80;81.10;;;;;;4990334;28;20209;-80
2022/11/21 11:34:26;;;;;;;2.72;2.22;;;20.80;81.20;;;;;;5008819;28;20475;-80
2022/11/21 11:37:08;;;;;;;2.60;2.40;;;20.90;81.10;;;;;;4980525;28;20701;-80
2022/11/21 11:39:41;;;;;;;2.97;2.40;;;20.90;81.10;;;;;;4990380;28;20212;-78
2022/11/21 11:48:04;;;;;;;3.20;2.58;;;21.00;81.00;;;;;;4992220;28;20552;-78
2022/11/21 11:50:35;;;;;;;3.45;3.00;;;21.00;80.90;;;;;;4990388;28;20220;-79
2022/11/21 11:53:10;;;;;;;3.45;2.30;;;21.10;81.80;;;;;;4994864;28;20193;-78
2022/11/21 11:55:42;;;;;;;4.80;2.07;;;21.10;81.20;;;;;;4999192;28;20217;-79
2022/11/21 11:58:18;;;;;;;2.50;2.30;;;21.10;81.20;;;;;;4992509;28;20483;-81
2022/11/21 12:00:49;;;;;;;2.83;2.43;;;21.20;81.00;;;;;;4992650;28;20209;-81
2022/11/21 12:03:19;;;;;;;4.90;2.07;;;21.20;80.70;;;;;;4991105;28;20460;-79
2022/11/21 12:05:58;;;;;;;2.30;2.10;;;21.20;80.50;;;;;;4991813;28;20456;-81
2022/11/21 12:08:33;;;;;;;2.47;2.27;;;21.20;80.90;;;;;;4996426;28;20205;-81
2022/11/21 12:14:05;;;;;;;3.17;2.00;;;21.30;81.30;;;;;;4986069;28;20526;-78
2022/11/21 12:16:36;;;;;;;3.75;2.40;;;21.30;81.50;;;;;;4994507;28;20483;-77
2022/11/21 12:19:08;;;;;;;2.43;2.03;;;21.30;81.40;;;;;;5006542;28;20555;-78
2022/11/21 12:21:35;;;;;;;4.00;2.73;;;21.30;81.50;;;;;;5002981;28;20953;-78
2022/11/21 12:24:05;;;;;;;3.07;2.53;;;21.30;81.50;;;;;;4987923;28;20948;-80
2022/11/21 12:26:42;;;;;;;2.53;1.95;;;21.30;81.40;;;;;;4992561;28;20468;-81
2022/11/21 12:29:33;;;;;;;3.73;1.80;;;21.40;81.50;;;;;;4993666;28;20560;-81
2022/11/21 12:32:23;;;;;;;2.10;1.88;;;21.40;81.80;;;;;;4978507;28;20912;-81
2022/11/21 12:35:16;;;;;;;2.40;2.20;;;21.40;81.90;;;;;;4988220;28;20591;-82
2022/11/21 12:37:54;;;;;;;4.10;2.63;;;21.40;81.90;;;;;;5000358;28;20680;-81
2022/11/21 12:40:33;;;;;;;2.07;1.87;;;21.40;81.80;;;;;;4994876;28;20463;-81
2022/11/21 12:43:16;;;;;;;2.40;2.00;;;21.40;81.90;;;;;;5001658;28;20455;-82
2022/11/21 12:45:49;;;;;;;2.60;1.90;;;21.40;82.00;;;;;;5003102;28;20656;-78
2022/11/21 12:54:52;;;;;;;2.70;2.17;;;21.40;82.10;;;;;;4990562;28;20204;-79
2022/11/21 12:57:23;;;;;;;2.50;2.30;;;21.40;82.00;;;;;;4989231;28;20467;-81
2022/11/21 13:00:02;;;;;;;2.77;2.57;;;21.40;82.10;;;;;;5008244;28;20455;-80
2022/11/21 13:02:37;;;;;;;2.30;2.10;;;21.40;82.00;;;;;;4999466;28;20486;-79
2022/11/21 13:05:08;;;;;;;3.17;2.10;;;21.50;82.30;;;;;;4992670;28;20466;-80
2022/11/21 13:07:35;;;;;;;1.80;1.70;;;21.50;82.30;;;;;;4995687;28;20205;-81
2022/11/21 13:10:04;;;;;;;2.22;2.03;;;21.50;82.30;;;;;;4993207;28;20216;-81
2022/11/21 13:12:40;;;;;;;2.37;2.17;;;21.50;82.50;;;;;;4993331;28;20204;-81
2022/11/21 13:15:20;;;;;;;1.95;1.63;;;21.50;82.50;;;;;;5004391;28;20559;-80
2022/11/21 13:17:53;;;;;;;2.80;2.30;;;21.50;82.50;;;;;;5005236;28;20204;-78
2022/11/21 13:20:26;;;;;;;2.10;1.75;;;21.50;82.40;;;;;;5005919;28;20436;-78
2022/11/21 13:22:58;;;;;;;2.23;1.93;;;21.50;82.50;;;;;;4993429;28;20624;-78
2022/11/21 13:25:40;;;;;;;2.30;1.83;;;21.50;82.50;;;;;;4990736;28;21603;-78
2022/11/21 13:28:31;;;;;;;2.17;1.97;;;21.50;82.30;;;;;;4997942;28;20459;-79
2022/11/21 13:31:00;;;;;;;2.30;1.87;;;21.50;82.30;;;;;;4983199;28;20468;-78
2022/11/21 13:33:49;;;;;;;2.03;1.30;;;21.50;82.70;;;;;;4997216;28;20468;-79
2022/11/21 13:36:42;;;;;;;3.10;2.60;;;21.50;82.50;;;;;;4995632;28;20213;-77